PWSweather.com
Personal Weather Stations
Station Observations
KCAEMERA1
Emerald Hills, Redwood City, CA 94062

Emerald HillsRedwood City, CA 94062

Lat: 37.46, Lon: -122.27

Elevation: 800

Station Type:

http://www.anegada.com/weather/wx.htm

High Low Average
Temperature 64.8°F18.2°C 47.1°F8.4°C 55.2°F12.9°C
Dew Point 47.9°F8.8°C 35.3°F1.8°C 40.4°F4.7°C
Winds 14.0 mph 22.5 kmh Calm Calm 7.0 mph W11.3 kmh W
Wind Gusts 18.0 mph29.0 kmh 4.0 mph6.4 kmh 12.0 mph19.3 kmh
Humidity 78% 37% 59%
Pressure 30.27 in1025.1 mb 30.20 in1022.7 mb -
Precipitation 0.00 in0.0 mm - -
Hour Temp Dew Point Humidity Winds Wind Gusts Pressure Precip Precip Rate Daily Precip Total
12:03 AM 49.1°F9.5°C 38.6°F3.7°C 67% 12.0 mph WNW19.3 kmh WNW 17.0 mph27.4 kmh 30.25 in1024.4 mb 0.00 in0.0 mm 0.00 in/hr0.0 mm/hr 0.00 in0.0 mm
12:11 AM 49.2°F9.6°C 39.5°F4.2°C 69% 12.0 mph NW19.3 kmh NW 17.0 mph27.4 kmh 30.25 in1024.4 mb 0.00 in0.0 mm 0.00 in/hr0.0 mm/hr 0.00 in0.0 mm
12:33 AM 49.1°F9.5°C 39.4°F4.1°C 69% 8.0 mph WNW12.9 kmh WNW 18.0 mph29.0 kmh 30.24 in1024.0 mb 0.00 in0.0 mm 0.00 in/hr0.0 mm/hr 0.00 in0.0 mm
12:41 AM 49.0°F9.4°C 39.7°F4.3°C 70% 7.0 mph WNW11.3 kmh WNW 12.0 mph19.3 kmh 30.24 in1024.0 mb 0.00 in0.0 mm 0.00 in/hr0.0 mm/hr 0.00 in0.0 mm
12:51 AM 48.9°F9.4°C 40.6°F4.8°C 73% 10.0 mph WNW16.1 kmh WNW 16.0 mph25.7 kmh 30.24 in1024.0 mb 0.00 in0.0 mm 0.00 in/hr0.0 mm/hr 0.00 in0.0 mm
01:03 AM 48.8°F9.3°C 39.1°F3.9°C 69% 6.0 mph WNW9.7 kmh WNW 11.0 mph17.7 kmh 30.23 in1023.7 mb 0.00 in0.0 mm 0.00 in/hr0.0 mm/hr 0.00 in0.0 mm
01:11 AM 48.7°F9.3°C 39.4°F4.1°C 70% 9.0 mph W14.5 kmh W 13.0 mph20.9 kmh 30.23 in1023.7 mb 0.00 in0.0 mm 0.00 in/hr0.0 mm/hr 0.00 in0.0 mm
01:21 AM 48.4°F9.1°C 36.4°F2.4°C 63% 8.0 mph WNW12.9 kmh WNW 10.0 mph16.1 kmh 30.23 in1023.7 mb 0.00 in0.0 mm 0.00 in/hr0.0 mm/hr 0.00 in0.0 mm
01:33 AM 48.5°F9.2°C 35.7°F2.1°C 61% 10.0 mph NW16.1 kmh NW 15.0 mph24.1 kmh 30.24 in1024.0 mb 0.00 in0.0 mm 0.00 in/hr0.0 mm/hr 0.00 in0.0 mm
01:41 AM 48.5°F9.2°C 35.3°F1.8°C 60% 8.0 mph W12.9 kmh W 15.0 mph24.1 kmh 30.23 in1023.7 mb 0.00 in0.0 mm 0.00 in/hr0.0 mm/hr 0.00 in0.0 mm
01:51 AM 48.6°F9.2°C 35.4°F1.9°C 60% 10.0 mph WNW16.1 kmh WNW 17.0 mph27.4 kmh 30.23 in1023.7 mb 0.00 in0.0 mm 0.00 in/hr0.0 mm/hr 0.00 in0.0 mm
02:03 AM 48.5°F9.2°C 35.7°F2.1°C 61% 7.0 mph WNW11.3 kmh WNW 16.0 mph25.7 kmh 30.23 in1023.7 mb 0.00 in0.0 mm 0.00 in/hr0.0 mm/hr 0.00 in0.0 mm
02:11 AM 48.4°F9.1°C 35.6°F2.0°C 61% 14.0 mph WNW22.5 kmh WNW 16.0 mph25.7 kmh 30.24 in1024.0 mb 0.00 in0.0 mm 0.00 in/hr0.0 mm/hr 0.00 in0.0 mm
02:21 AM 48.2°F9.0°C 35.8°F2.1°C 62% 6.0 mph WNW9.7 kmh WNW 8.0 mph12.9 kmh 30.23 in1023.7 mb 0.00 in0.0 mm 0.00 in/hr0.0 mm/hr 0.00 in0.0 mm
02:33 AM 48.1°F8.9°C 38.8°F3.8°C 70% 11.0 mph NW17.7 kmh NW 15.0 mph24.1 kmh 30.23 in1023.7 mb 0.00 in0.0 mm 0.00 in/hr0.0 mm/hr 0.00 in0.0 mm
02:41 AM 48.0°F8.9°C 39.8°F4.3°C 73% 6.0 mph NW9.7 kmh NW 11.0 mph17.7 kmh 30.24 in1024.0 mb 0.00 in0.0 mm 0.00 in/hr0.0 mm/hr 0.00 in0.0 mm
02:51 AM 47.8°F8.8°C 39.2°F4.0°C 72% 7.0 mph NW11.3 kmh NW 11.0 mph17.7 kmh 30.24 in1024.0 mb 0.00 in0.0 mm 0.00 in/hr0.0 mm/hr 0.00 in0.0 mm
03:03 AM 47.9°F8.8°C 39.3°F4.1°C 72% 6.0 mph NW9.7 kmh NW 14.0 mph22.5 kmh 30.24 in1024.0 mb 0.00 in0.0 mm 0.00 in/hr0.0 mm/hr 0.00 in0.0 mm
03:11 AM 47.9°F8.8°C 39.3°F4.1°C 72% 7.0 mph NW11.3 kmh NW 15.0 mph24.1 kmh 30.24 in1024.0 mb 0.00 in0.0 mm 0.00 in/hr0.0 mm/hr 0.00 in0.0 mm
03:21 AM 47.8°F8.8°C 39.2°F4.0°C 72% 6.0 mph NW9.7 kmh NW 15.0 mph24.1 kmh 30.24 in1024.0 mb 0.00 in0.0 mm 0.00 in/hr0.0 mm/hr 0.00 in0.0 mm
03:33 AM 47.8°F8.8°C 39.6°F4.2°C 73% 6.0 mph NW9.7 kmh NW 15.0 mph24.1 kmh 30.25 in1024.4 mb 0.00 in0.0 mm 0.00 in/hr0.0 mm/hr 0.00 in0.0 mm
03:41 AM 47.8°F8.8°C 39.6°F4.2°C 73% 8.0 mph WNW12.9 kmh WNW 10.0 mph16.1 kmh 30.25 in1024.4 mb 0.00 in0.0 mm 0.00 in/hr0.0 mm/hr 0.00 in0.0 mm
03:51 AM 47.8°F8.8°C 39.6°F4.2°C 73% 8.0 mph WNW12.9 kmh WNW 14.0 mph22.5 kmh 30.25 in1024.4 mb 0.00 in0.0 mm 0.00 in/hr0.0 mm/hr 0.00 in0.0 mm
04:03 AM 47.7°F8.7°C 40.5°F4.7°C 76% 9.0 mph NW14.5 kmh NW 13.0 mph20.9 kmh 30.24 in1024.0 mb 0.00 in0.0 mm 0.00 in/hr0.0 mm/hr 0.00 in0.0 mm
04:11 AM 47.7°F8.7°C 40.5°F4.7°C 76% 10.0 mph WNW16.1 kmh WNW 13.0 mph20.9 kmh 30.24 in1024.0 mb 0.00 in0.0 mm 0.00 in/hr0.0 mm/hr 0.00 in0.0 mm
04:21 AM 47.6°F8.7°C 40.4°F4.7°C 76% 11.0 mph NW17.7 kmh NW 11.0 mph17.7 kmh 30.24 in1024.0 mb 0.00 in0.0 mm 0.00 in/hr0.0 mm/hr 0.00 in0.0 mm
04:33 AM 47.5°F8.6°C 40.3°F4.6°C 76% 10.0 mph NW16.1 kmh NW 13.0 mph20.9 kmh 30.24 in1024.0 mb 0.00 in0.0 mm 0.00 in/hr0.0 mm/hr 0.00 in0.0 mm
04:41 AM 47.5°F8.6°C 40.7°F4.8°C 77% 7.0 mph NW11.3 kmh NW 13.0 mph20.9 kmh 30.24 in1024.0 mb 0.00 in0.0 mm 0.00 in/hr0.0 mm/hr 0.00 in0.0 mm
04:51 AM 47.4°F8.6°C 40.6°F4.8°C 77% 6.0 mph NW9.7 kmh NW 13.0 mph20.9 kmh 30.24 in1024.0 mb 0.00 in0.0 mm 0.00 in/hr0.0 mm/hr 0.00 in0.0 mm
05:11 AM 47.1°F8.4°C 40.6°F4.8°C 78% 6.0 mph NW9.7 kmh NW 10.0 mph16.1 kmh 30.25 in1024.4 mb 0.00 in0.0 mm 0.00 in/hr0.0 mm/hr 0.00 in0.0 mm
05:21 AM 47.1°F8.4°C 40.6°F4.8°C 78% 6.0 mph NW9.7 kmh NW 10.0 mph16.1 kmh 30.25 in1024.4 mb 0.00 in0.0 mm 0.00 in/hr0.0 mm/hr 0.00 in0.0 mm
05:33 AM 47.3°F8.5°C 40.5°F4.7°C 77% 9.0 mph NW14.5 kmh NW 12.0 mph19.3 kmh 30.25 in1024.4 mb 0.00 in0.0 mm 0.00 in/hr0.0 mm/hr 0.00 in0.0 mm
05:41 AM 47.3°F8.5°C 40.1°F4.5°C 76% 9.0 mph NW14.5 kmh NW 12.0 mph19.3 kmh 30.25 in1024.4 mb 0.00 in0.0 mm 0.00 in/hr0.0 mm/hr 0.00 in0.0 mm
05:51 AM 47.4°F8.6°C 40.2°F4.6°C 76% 9.0 mph WNW14.5 kmh WNW 12.0 mph19.3 kmh 30.26 in1024.7 mb 0.00 in0.0 mm 0.00 in/hr0.0 mm/hr 0.00 in0.0 mm
06:03 AM 47.7°F8.7°C 40.5°F4.7°C 76% 6.0 mph WNW9.7 kmh WNW 9.0 mph14.5 kmh 30.26 in1024.7 mb 0.00 in0.0 mm 0.00 in/hr0.0 mm/hr 0.00 in0.0 mm
06:11 AM 48.0°F8.9°C 40.8°F4.9°C 76% 10.0 mph NW16.1 kmh NW 11.0 mph17.7 kmh 30.26 in1024.7 mb 0.00 in0.0 mm 0.00 in/hr0.0 mm/hr 0.00 in0.0 mm
06:21 AM 48.7°F9.3°C 41.1°F5.1°C 75% 6.0 mph NW9.7 kmh NW 10.0 mph16.1 kmh 30.26 in1024.7 mb 0.00 in0.0 mm 0.00 in/hr0.0 mm/hr 0.00 in0.0 mm
06:33 AM 49.4°F9.7°C 41.5°F5.3°C 74% 7.0 mph NW11.3 kmh NW 13.0 mph20.9 kmh 30.26 in1024.7 mb 0.00 in0.0 mm 0.00 in/hr0.0 mm/hr 0.00 in0.0 mm
06:41 AM 49.9°F9.9°C 41.3°F5.2°C 72% 5.0 mph NW8.0 kmh NW 6.0 mph9.7 kmh 30.26 in1024.7 mb 0.00 in0.0 mm 0.00 in/hr0.0 mm/hr 0.00 in0.0 mm
06:51 AM 50.6°F10.3°C 40.4°F4.7°C 68% 6.0 mph NW9.7 kmh NW 8.0 mph12.9 kmh 30.26 in1024.7 mb 0.00 in0.0 mm 0.00 in/hr0.0 mm/hr 0.00 in0.0 mm
07:03 AM 51.3°F10.7°C 41.5°F5.3°C 69% 2.0 mph NW3.2 kmh NW 8.0 mph12.9 kmh 30.27 in1025.1 mb 0.00 in0.0 mm 0.00 in/hr0.0 mm/hr 0.00 in0.0 mm
07:11 AM 52.4°F11.3°C 42.2°F5.7°C 68% 2.0 mph NW3.2 kmh NW 8.0 mph12.9 kmh 30.26 in1024.7 mb 0.00 in0.0 mm 0.00 in/hr0.0 mm/hr 0.00 in0.0 mm
07:21 AM 53.5°F11.9°C 43.2°F6.2°C 68% 5.0 mph NW8.0 kmh NW 5.0 mph8.0 kmh 30.26 in1024.7 mb 0.00 in0.0 mm 0.00 in/hr0.0 mm/hr 0.00 in0.0 mm
07:33 AM 53.2°F11.8°C 40.5°F4.7°C 62% 1.0 mph N1.6 kmh N 7.0 mph11.3 kmh 30.26 in1024.7 mb 0.00 in0.0 mm 0.00 in/hr0.0 mm/hr 0.00 in0.0 mm
07:41 AM 54.1°F12.3°C 41.0°F5.0°C 61% 3.0 mph NNW4.8 kmh NNW 4.0 mph6.4 kmh 30.26 in1024.7 mb 0.00 in0.0 mm 0.00 in/hr0.0 mm/hr 0.00 in0.0 mm
07:51 AM 55.6°F13.1°C 42.0°F5.6°C 60% 5.0 mph NW8.0 kmh NW 9.0 mph14.5 kmh 30.27 in1025.1 mb 0.00 in0.0 mm 0.00 in/hr0.0 mm/hr 0.00 in0.0 mm
08:03 AM 55.5°F13.1°C 40.1°F4.5°C 56% 9.0 mph N14.5 kmh N 9.0 mph14.5 kmh 30.27 in1025.1 mb 0.00 in0.0 mm 0.00 in/hr0.0 mm/hr 0.00 in0.0 mm
08:11 AM 54.9°F12.7°C 39.5°F4.2°C 56% 3.0 mph N4.8 kmh N 9.0 mph14.5 kmh 30.26 in1024.7 mb 0.00 in0.0 mm 0.00 in/hr0.0 mm/hr 0.00 in0.0 mm
08:21 AM 55.0°F12.8°C 38.7°F3.7°C 54% 7.0 mph N11.3 kmh N 7.0 mph11.3 kmh 30.26 in1024.7 mb 0.00 in0.0 mm 0.00 in/hr0.0 mm/hr 0.00 in0.0 mm
08:33 AM 56.4°F13.6°C 40.0°F4.4°C 54% 2.0 mph NNW3.2 kmh NNW 8.0 mph12.9 kmh 30.26 in1024.7 mb 0.00 in0.0 mm 0.00 in/hr0.0 mm/hr 0.00 in0.0 mm
08:41 AM 56.8°F13.8°C 40.4°F4.7°C 54% 7.0 mph NNE11.3 kmh NNE 8.0 mph12.9 kmh 30.26 in1024.7 mb 0.00 in0.0 mm 0.00 in/hr0.0 mm/hr 0.00 in0.0 mm
08:51 AM 57.7°F14.3°C 40.7°F4.8°C 53% 3.0 mph NW4.8 kmh NW 9.0 mph14.5 kmh 30.26 in1024.7 mb 0.00 in0.0 mm 0.00 in/hr0.0 mm/hr 0.00 in0.0 mm
09:03 AM 57.2°F14.0°C 37.2°F2.9°C 47% 6.0 mph N9.7 kmh N 12.0 mph19.3 kmh 30.26 in1024.7 mb 0.00 in0.0 mm 0.00 in/hr0.0 mm/hr 0.00 in0.0 mm
09:11 AM 57.5°F14.2°C 36.9°F2.7°C 46% 10.0 mph N16.1 kmh N 12.0 mph19.3 kmh 30.26 in1024.7 mb 0.00 in0.0 mm 0.00 in/hr0.0 mm/hr 0.00 in0.0 mm
09:21 AM 58.1°F14.5°C 36.9°F2.7°C 45% 7.0 mph NNE11.3 kmh NNE 9.0 mph14.5 kmh 30.26 in1024.7 mb 0.00 in0.0 mm 0.00 in/hr0.0 mm/hr 0.00 in0.0 mm
09:33 AM 58.1°F14.5°C 38.5°F3.6°C 48% 8.0 mph N12.9 kmh N 13.0 mph20.9 kmh 30.26 in1024.7 mb 0.00 in0.0 mm 0.00 in/hr0.0 mm/hr 0.00 in0.0 mm
09:41 AM 58.5°F14.7°C 38.4°F3.6°C 47% 4.0 mph NW6.4 kmh NW 7.0 mph11.3 kmh 30.26 in1024.7 mb 0.00 in0.0 mm 0.00 in/hr0.0 mm/hr 0.00 in0.0 mm
09:51 AM 58.5°F14.7°C 37.8°F3.2°C 46% 6.0 mph N9.7 kmh N 13.0 mph20.9 kmh 30.26 in1024.7 mb 0.00 in0.0 mm 0.00 in/hr0.0 mm/hr 0.00 in0.0 mm
10:11 AM 59.1°F15.1°C 38.4°F3.6°C 46% 4.0 mph NNE6.4 kmh NNE 12.0 mph19.3 kmh 30.25 in1024.4 mb 0.00 in0.0 mm 0.00 in/hr0.0 mm/hr 0.00 in0.0 mm
10:21 AM 59.7°F15.4°C 38.9°F3.8°C 46% Calm Calm 6.0 mph9.7 kmh 30.26 in1024.7 mb 0.00 in0.0 mm 0.00 in/hr0.0 mm/hr 0.00 in0.0 mm
10:33 AM 60.3°F15.7°C 38.3°F3.5°C 44% Calm Calm 9.0 mph14.5 kmh 30.25 in1024.4 mb 0.00 in0.0 mm 0.00 in/hr0.0 mm/hr 0.00 in0.0 mm
10:41 AM 61.4°F16.3°C 40.5°F4.7°C 46% 5.0 mph NE8.0 kmh NE 5.0 mph8.0 kmh 30.25 in1024.4 mb 0.00 in0.0 mm 0.00 in/hr0.0 mm/hr 0.00 in0.0 mm
10:51 AM 62.1°F16.7°C 40.0°F4.4°C 44% 2.0 mph N3.2 kmh N 10.0 mph16.1 kmh 30.25 in1024.4 mb 0.00 in0.0 mm 0.00 in/hr0.0 mm/hr 0.00 in0.0 mm
11:03 AM 62.6°F17.0°C 40.4°F4.7°C 44% 7.0 mph N11.3 kmh N 10.0 mph16.1 kmh 30.25 in1024.4 mb 0.00 in0.0 mm 0.00 in/hr0.0 mm/hr 0.00 in0.0 mm
11:11 AM 62.5°F16.9°C 42.0°F5.6°C 47% 5.0 mph N8.0 kmh N 10.0 mph16.1 kmh 30.25 in1024.4 mb 0.00 in0.0 mm 0.00 in/hr0.0 mm/hr 0.00 in0.0 mm
11:21 AM 62.4°F16.9°C 43.5°F6.4°C 50% 4.0 mph NW6.4 kmh NW 10.0 mph16.1 kmh 30.25 in1024.4 mb 0.00 in0.0 mm 0.00 in/hr0.0 mm/hr 0.00 in0.0 mm
11:33 AM 63.0°F17.2°C 40.2°F4.6°C 43% 11.0 mph N17.7 kmh N 14.0 mph22.5 kmh 30.25 in1024.4 mb 0.00 in0.0 mm 0.00 in/hr0.0 mm/hr 0.00 in0.0 mm
11:41 AM 63.6°F17.6°C 40.7°F4.8°C 43% 6.0 mph WNW9.7 kmh WNW 11.0 mph17.7 kmh 30.25 in1024.4 mb 0.00 in0.0 mm 0.00 in/hr0.0 mm/hr 0.00 in0.0 mm
11:51 AM 64.1°F17.8°C 40.6°F4.8°C 42% 5.0 mph NW8.0 kmh NW 13.0 mph20.9 kmh 30.25 in1024.4 mb 0.00 in0.0 mm 0.00 in/hr0.0 mm/hr 0.00 in0.0 mm
12:03 PM 63.7°F17.6°C 42.6°F5.9°C 46% 6.0 mph NNW9.7 kmh NNW 10.0 mph16.1 kmh 30.25 in1024.4 mb 0.00 in0.0 mm 0.00 in/hr0.0 mm/hr 0.00 in0.0 mm
12:11 PM 63.3°F17.4°C 41.6°F5.3°C 45% 5.0 mph NW8.0 kmh NW 15.0 mph24.1 kmh 30.25 in1024.4 mb 0.00 in0.0 mm 0.00 in/hr0.0 mm/hr 0.00 in0.0 mm
12:21 PM 63.6°F17.6°C 45.2°F7.3°C 51% 5.0 mph NW8.0 kmh NW 10.0 mph16.1 kmh 30.25 in1024.4 mb 0.00 in0.0 mm 0.00 in/hr0.0 mm/hr 0.00 in0.0 mm
12:33 PM 64.1°F17.8°C 42.9°F6.1°C 46% 4.0 mph N6.4 kmh N 13.0 mph20.9 kmh 30.25 in1024.4 mb 0.00 in0.0 mm 0.00 in/hr0.0 mm/hr 0.00 in0.0 mm
12:41 PM 63.7°F17.6°C 40.2°F4.6°C 42% 8.0 mph NW12.9 kmh NW 11.0 mph17.7 kmh 30.24 in1024.0 mb 0.00 in0.0 mm 0.00 in/hr0.0 mm/hr 0.00 in0.0 mm
12:51 PM 64.3°F17.9°C 46.3°F7.9°C 52% 11.0 mph NW17.7 kmh NW 15.0 mph24.1 kmh 30.25 in1024.4 mb 0.00 in0.0 mm 0.00 in/hr0.0 mm/hr 0.00 in0.0 mm
01:03 PM 63.3°F17.4°C 42.2°F5.7°C 46% 5.0 mph NW8.0 kmh NW 8.0 mph12.9 kmh 30.24 in1024.0 mb 0.00 in0.0 mm 0.00 in/hr0.0 mm/hr 0.00 in0.0 mm
01:11 PM 63.7°F17.6°C 37.0°F2.8°C 37% 6.0 mph N9.7 kmh N 14.0 mph22.5 kmh 30.24 in1024.0 mb 0.00 in0.0 mm 0.00 in/hr0.0 mm/hr 0.00 in0.0 mm
01:21 PM 63.5°F17.5°C 41.2°F5.1°C 44% 9.0 mph W14.5 kmh W 11.0 mph17.7 kmh 30.24 in1024.0 mb 0.00 in0.0 mm 0.00 in/hr0.0 mm/hr 0.00 in0.0 mm
01:33 PM 63.4°F17.4°C 38.0°F3.3°C 39% Calm Calm 15.0 mph24.1 kmh 30.24 in1024.0 mb 0.00 in0.0 mm 0.00 in/hr0.0 mm/hr 0.00 in0.0 mm
01:41 PM 63.6°F17.6°C 39.5°F4.2°C 41% 11.0 mph N17.7 kmh N 13.0 mph20.9 kmh 30.24 in1024.0 mb 0.00 in0.0 mm 0.00 in/hr0.0 mm/hr 0.00 in0.0 mm
01:51 PM 63.5°F17.5°C 40.0°F4.4°C 42% 10.0 mph N16.1 kmh N 13.0 mph20.9 kmh 30.23 in1023.7 mb 0.00 in0.0 mm 0.00 in/hr0.0 mm/hr 0.00 in0.0 mm
02:03 PM 63.2°F17.3°C 40.4°F4.7°C 43% 9.0 mph N14.5 kmh N 11.0 mph17.7 kmh 30.23 in1023.7 mb 0.00 in0.0 mm 0.00 in/hr0.0 mm/hr 0.00 in0.0 mm
02:11 PM 63.1°F17.3°C 40.3°F4.6°C 43% 12.0 mph NW19.3 kmh NW 12.0 mph19.3 kmh 30.23 in1023.7 mb 0.00 in0.0 mm 0.00 in/hr0.0 mm/hr 0.00 in0.0 mm
02:21 PM 62.8°F17.1°C 41.7°F5.4°C 46% 11.0 mph NW17.7 kmh NW 14.0 mph22.5 kmh 30.23 in1023.7 mb 0.00 in0.0 mm 0.00 in/hr0.0 mm/hr 0.00 in0.0 mm
02:33 PM 64.0°F17.8°C 47.0°F8.3°C 54% 8.0 mph NW12.9 kmh NW 14.0 mph22.5 kmh 30.22 in1023.4 mb 0.00 in0.0 mm 0.00 in/hr0.0 mm/hr 0.00 in0.0 mm
02:41 PM 63.2°F17.3°C 42.1°F5.6°C 46% 9.0 mph N14.5 kmh N 11.0 mph17.7 kmh 30.22 in1023.4 mb 0.00 in0.0 mm 0.00 in/hr0.0 mm/hr 0.00 in0.0 mm
02:51 PM 63.7°F17.6°C 44.2°F6.8°C 49% 3.0 mph NNW4.8 kmh NNW 13.0 mph20.9 kmh 30.22 in1023.4 mb 0.00 in0.0 mm 0.00 in/hr0.0 mm/hr 0.00 in0.0 mm
03:03 PM 63.2°F17.3°C 44.8°F7.1°C 51% 11.0 mph NW17.7 kmh NW 14.0 mph22.5 kmh 30.21 in1023.0 mb 0.00 in0.0 mm 0.00 in/hr0.0 mm/hr 0.00 in0.0 mm
03:11 PM 63.6°F17.6°C 44.1°F6.7°C 49% 3.0 mph NW4.8 kmh NW 14.0 mph22.5 kmh 30.21 in1023.0 mb 0.00 in0.0 mm 0.00 in/hr0.0 mm/hr 0.00 in0.0 mm
03:21 PM 63.6°F17.6°C 47.2°F8.4°C 55% 4.0 mph NW6.4 kmh NW 10.0 mph16.1 kmh 30.22 in1023.4 mb 0.00 in0.0 mm 0.00 in/hr0.0 mm/hr 0.00 in0.0 mm
03:33 PM 64.4°F18.0°C 47.9°F8.8°C 55% 10.0 mph WNW16.1 kmh WNW 12.0 mph19.3 kmh 30.21 in1023.0 mb 0.00 in0.0 mm 0.00 in/hr0.0 mm/hr 0.00 in0.0 mm
03:41 PM 64.8°F18.2°C 46.3°F7.9°C 51% 6.0 mph NW9.7 kmh NW 9.0 mph14.5 kmh 30.20 in1022.7 mb 0.00 in0.0 mm 0.00 in/hr0.0 mm/hr 0.00 in0.0 mm
03:51 PM 63.3°F17.4°C 45.4°F7.4°C 52% 10.0 mph NW16.1 kmh NW 14.0 mph22.5 kmh 30.21 in1023.0 mb 0.00 in0.0 mm 0.00 in/hr0.0 mm/hr 0.00 in0.0 mm
04:03 PM 63.4°F17.4°C 45.0°F7.2°C 51% 7.0 mph NW11.3 kmh NW 14.0 mph22.5 kmh 30.21 in1023.0 mb 0.00 in0.0 mm 0.00 in/hr0.0 mm/hr 0.00 in0.0 mm
04:11 PM 62.8°F17.1°C 44.9°F7.2°C 52% 8.0 mph WNW12.9 kmh WNW 14.0 mph22.5 kmh 30.20 in1022.7 mb 0.00 in0.0 mm 0.00 in/hr0.0 mm/hr 0.00 in0.0 mm
04:21 PM 63.2°F17.3°C 47.7°F8.7°C 57% 8.0 mph W12.9 kmh W 8.0 mph12.9 kmh 30.21 in1023.0 mb 0.00 in0.0 mm 0.00 in/hr0.0 mm/hr 0.00 in0.0 mm
04:34 PM 63.7°F17.6°C 49.6°F9.8°C 60% 4.0 mph SW6.4 kmh SW 15.0 mph24.1 kmh 30.20 in1022.7 mb 0.00 in0.0 mm 0.00 in/hr0.0 mm/hr 0.00 in0.0 mm
04:41 PM 63.9°F17.7°C 50.2°F10.1°C 61% 6.0 mph WSW9.7 kmh WSW 11.0 mph17.7 kmh 30.20 in1022.7 mb 0.00 in0.0 mm 0.00 in/hr0.0 mm/hr 0.00 in0.0 mm
04:51 PM 63.7°F17.6°C 49.1°F9.5°C 59% 9.0 mph WNW14.5 kmh WNW 11.0 mph17.7 kmh 30.20 in1022.7 mb 0.00 in0.0 mm 0.00 in/hr0.0 mm/hr 0.00 in0.0 mm
05:03 PM 63.0°F17.2°C 49.4°F9.7°C 61% 6.0 mph WNW9.7 kmh WNW 11.0 mph17.7 kmh 30.20 in1022.7 mb 0.00 in0.0 mm 0.00 in/hr0.0 mm/hr 0.00 in0.0 mm
05:11 PM 63.1°F17.3°C 48.1°F8.9°C 58% 8.0 mph WNW12.9 kmh WNW 11.0 mph17.7 kmh 30.20 in1022.7 mb 0.00 in0.0 mm 0.00 in/hr0.0 mm/hr 0.00 in0.0 mm
05:21 PM 63.0°F17.2°C 48.0°F8.9°C 58% 6.0 mph WNW9.7 kmh WNW 8.0 mph12.9 kmh 30.20 in1022.7 mb 0.00 in0.0 mm 0.00 in/hr0.0 mm/hr 0.00 in0.0 mm
05:34 PM 62.8°F17.1°C 46.4°F8.0°C 55% 4.0 mph W6.4 kmh W 10.0 mph16.1 kmh 30.20 in1022.7 mb 0.00 in0.0 mm 0.00 in/hr0.0 mm/hr 0.00 in0.0 mm
05:41 PM 62.5°F16.9°C 45.7°F7.6°C 54% 6.0 mph W9.7 kmh W 7.0 mph11.3 kmh 30.20 in1022.7 mb 0.00 in0.0 mm 0.00 in/hr0.0 mm/hr 0.00 in0.0 mm
05:51 PM 62.0°F16.7°C 44.2°F6.8°C 52% 6.0 mph W9.7 kmh W 9.0 mph14.5 kmh 30.19 in1022.4 mb 0.00 in0.0 mm 0.00 in/hr0.0 mm/hr 0.00 in0.0 mm
06:03 PM 60.3°F15.7°C 44.1°F6.7°C 55% 7.0 mph NW11.3 kmh NW 10.0 mph16.1 kmh 30.19 in1022.4 mb 0.00 in0.0 mm 0.00 in/hr0.0 mm/hr 0.00 in0.0 mm
06:11 PM 59.6°F15.3°C 43.9°F6.6°C 56% 5.0 mph NW8.0 kmh NW 10.0 mph16.1 kmh 30.19 in1022.4 mb 0.00 in0.0 mm 0.00 in/hr0.0 mm/hr 0.00 in0.0 mm
06:21 PM 59.0°F15.0°C 42.9°F6.1°C 55% 7.0 mph WNW11.3 kmh WNW 9.0 mph14.5 kmh 30.19 in1022.4 mb 0.00 in0.0 mm 0.00 in/hr0.0 mm/hr 0.00 in0.0 mm
06:34 PM 58.3°F14.6°C 42.2°F5.7°C 55% 5.0 mph WSW8.0 kmh WSW 11.0 mph17.7 kmh 30.18 in1022.0 mb 0.00 in0.0 mm 0.00 in/hr0.0 mm/hr 0.00 in0.0 mm
06:41 PM 57.9°F14.4°C 42.3°F5.7°C 56% 7.0 mph WSW11.3 kmh WSW 8.0 mph12.9 kmh 30.18 in1022.0 mb 0.00 in0.0 mm 0.00 in/hr0.0 mm/hr 0.00 in0.0 mm
06:51 PM 57.4°F14.1°C 43.6°F6.4°C 60% 8.0 mph WSW12.9 kmh WSW 9.0 mph14.5 kmh 30.18 in1022.0 mb 0.00 in0.0 mm 0.00 in/hr0.0 mm/hr 0.00 in0.0 mm
07:03 PM 56.7°F13.7°C 42.1°F5.6°C 58% 7.0 mph WSW11.3 kmh WSW 8.0 mph12.9 kmh 30.18 in1022.0 mb 0.00 in0.0 mm 0.00 in/hr0.0 mm/hr 0.00 in0.0 mm
07:11 PM 56.3°F13.5°C 42.6°F5.9°C 60% 4.0 mph WSW6.4 kmh WSW 10.0 mph16.1 kmh 30.18 in1022.0 mb 0.00 in0.0 mm 0.00 in/hr0.0 mm/hr 0.00 in0.0 mm
07:21 PM 55.8°F13.2°C 39.4°F4.1°C 54% 4.0 mph WSW6.4 kmh WSW 7.0 mph11.3 kmh 30.18 in1022.0 mb 0.00 in0.0 mm 0.00 in/hr0.0 mm/hr 0.00 in0.0 mm
07:34 PM 55.3°F12.9°C 42.1°F5.6°C 61% 7.0 mph WSW11.3 kmh WSW 10.0 mph16.1 kmh 30.18 in1022.0 mb 0.00 in0.0 mm 0.00 in/hr0.0 mm/hr 0.00 in0.0 mm
07:41 PM 55.5°F13.1°C 45.9°F7.7°C 70% 5.0 mph WSW8.0 kmh WSW 7.0 mph11.3 kmh 30.18 in1022.0 mb 0.00 in0.0 mm 0.00 in/hr0.0 mm/hr 0.00 in0.0 mm
07:51 PM 56.6°F13.7°C 48.1°F8.9°C 73% 5.0 mph W8.0 kmh W 10.0 mph16.1 kmh 30.19 in1022.4 mb 0.00 in0.0 mm 0.00 in/hr0.0 mm/hr 0.00 in0.0 mm
08:04 PM 56.8°F13.8°C 48.3°F9.1°C 73% 9.0 mph W14.5 kmh W 10.0 mph16.1 kmh 30.19 in1022.4 mb 0.00 in0.0 mm 0.00 in/hr0.0 mm/hr 0.00 in0.0 mm
08:11 PM 56.8°F13.8°C 47.9°F8.8°C 72% 7.0 mph W11.3 kmh W 10.0 mph16.1 kmh 30.19 in1022.4 mb 0.00 in0.0 mm 0.00 in/hr0.0 mm/hr 0.00 in0.0 mm
08:21 PM 56.8°F13.8°C 47.5°F8.6°C 71% 6.0 mph W9.7 kmh W 9.0 mph14.5 kmh 30.19 in1022.4 mb 0.00 in0.0 mm 0.00 in/hr0.0 mm/hr 0.00 in0.0 mm
08:34 PM 56.7°F13.7°C 45.5°F7.5°C 66% 9.0 mph W14.5 kmh W 10.0 mph16.1 kmh 30.20 in1022.7 mb 0.00 in0.0 mm 0.00 in/hr0.0 mm/hr 0.00 in0.0 mm
08:41 PM 56.2°F13.4°C 43.4°F6.3°C 62% 7.0 mph WSW11.3 kmh WSW 10.0 mph16.1 kmh 30.20 in1022.7 mb 0.00 in0.0 mm 0.00 in/hr0.0 mm/hr 0.00 in0.0 mm
08:51 PM 54.5°F12.5°C 42.2°F5.7°C 63% 7.0 mph WSW11.3 kmh WSW 10.0 mph16.1 kmh 30.20 in1022.7 mb 0.00 in0.0 mm 0.00 in/hr0.0 mm/hr 0.00 in0.0 mm
09:03 PM 53.5°F11.9°C 42.0°F5.6°C 65% 7.0 mph SW11.3 kmh SW 9.0 mph14.5 kmh 30.20 in1022.7 mb 0.00 in0.0 mm 0.00 in/hr0.0 mm/hr 0.00 in0.0 mm
09:11 PM 53.2°F11.8°C 42.5°F5.8°C 67% 5.0 mph WSW8.0 kmh WSW 10.0 mph16.1 kmh 30.20 in1022.7 mb 0.00 in0.0 mm 0.00 in/hr0.0 mm/hr 0.00 in0.0 mm
09:21 PM 53.0°F11.7°C 39.5°F4.2°C 60% 4.0 mph WSW6.4 kmh WSW 7.0 mph11.3 kmh 30.20 in1022.7 mb 0.00 in0.0 mm 0.00 in/hr0.0 mm/hr 0.00 in0.0 mm
09:34 PM 53.8°F12.1°C 43.1°F6.2°C 67% Calm Calm 7.0 mph11.3 kmh 30.20 in1022.7 mb 0.00 in0.0 mm 0.00 in/hr0.0 mm/hr 0.00 in0.0 mm
09:41 PM 54.6°F12.6°C 43.9°F6.6°C 67% Calm Calm -- 30.20 in1022.7 mb 0.00 in0.0 mm 0.00 in/hr0.0 mm/hr 0.00 in0.0 mm
09:51 PM 55.2°F12.9°C 44.8°F7.1°C 68% 1.0 mph WSW1.6 kmh WSW 2.0 mph3.2 kmh 30.19 in1022.4 mb 0.00 in0.0 mm 0.00 in/hr0.0 mm/hr 0.00 in0.0 mm
10:03 PM 55.4°F13.0°C 45.4°F7.4°C 69% 4.0 mph WSW6.4 kmh WSW 5.0 mph8.0 kmh 30.19 in1022.4 mb 0.00 in0.0 mm 0.00 in/hr0.0 mm/hr 0.00 in0.0 mm
10:11 PM 55.6°F13.1°C 46.0°F7.8°C 70% 1.0 mph WSW1.6 kmh WSW 5.0 mph8.0 kmh 30.18 in1022.0 mb 0.00 in0.0 mm 0.00 in/hr0.0 mm/hr 0.00 in0.0 mm
10:21 PM 55.6°F13.1°C 46.4°F8.0°C 71% Calm Calm -- 30.18 in1022.0 mb 0.00 in0.0 mm 0.00 in/hr0.0 mm/hr 0.00 in0.0 mm
10:33 PM 53.9°F12.2°C 40.8°F4.9°C 61% Calm Calm 3.0 mph4.8 kmh 30.19 in1022.4 mb 0.00 in0.0 mm 0.00 in/hr0.0 mm/hr 0.00 in0.0 mm
10:51 PM 52.4°F11.3°C 37.2°F2.9°C 56% 1.0 mph WSW1.6 kmh WSW 3.0 mph4.8 kmh 30.19 in1022.4 mb 0.00 in0.0 mm 0.00 in/hr0.0 mm/hr 0.00 in0.0 mm
11:03 PM 51.9°F11.1°C 37.6°F3.1°C 58% 4.0 mph WSW6.4 kmh WSW 5.0 mph8.0 kmh 30.19 in1022.4 mb 0.00 in0.0 mm 0.00 in/hr0.0 mm/hr 0.00 in0.0 mm
11:11 PM 51.5°F10.8°C 35.9°F2.2°C 55% 3.0 mph SW4.8 kmh SW 6.0 mph9.7 kmh 30.19 in1022.4 mb 0.00 in0.0 mm 0.00 in/hr0.0 mm/hr 0.00 in0.0 mm
11:21 PM 51.2°F10.7°C 39.9°F4.4°C 65% 3.0 mph WNW4.8 kmh WNW 4.0 mph6.4 kmh 30.18 in1022.0 mb 0.00 in0.0 mm 0.00 in/hr0.0 mm/hr 0.00 in0.0 mm
11:33 PM 51.1°F10.6°C 42.0°F5.6°C 71% 2.0 mph W3.2 kmh W 5.0 mph8.0 kmh 30.18 in1022.0 mb 0.00 in0.0 mm 0.00 in/hr0.0 mm/hr 0.00 in0.0 mm
11:41 PM 51.1°F10.6°C 41.7°F5.4°C 70% 1.0 mph W1.6 kmh W 2.0 mph3.2 kmh 30.19 in1022.4 mb 0.00 in0.0 mm 0.00 in/hr0.0 mm/hr 0.00 in0.0 mm
11:51 PM 51.2°F10.7°C 41.8°F5.4°C 70% Calm Calm 2.0 mph3.2 kmh 30.18 in1022.0 mb 0.00 in0.0 mm 0.00 in/hr0.0 mm/hr 0.00 in0.0 mm